createdAt,value
2023-04-29T00:01:12.665Z,11.55
2023-04-29T00:03:14.432Z,11.60
2023-04-29T00:05:17.085Z,11.56
2023-04-29T00:07:18.681Z,11.52
2023-04-29T00:09:21.476Z,11.58
2023-04-29T00:11:24.378Z,11.58
2023-04-29T00:13:25.974Z,11.61
2023-04-29T00:15:28.105Z,11.56
2023-04-29T00:17:29.666Z,11.58
2023-04-29T00:19:31.244Z,11.57
2023-04-29T00:21:32.782Z,11.53
2023-04-29T00:23:34.870Z,11.58
2023-04-29T00:25:36.333Z,11.55
2023-04-29T00:27:39.172Z,11.51
2023-04-29T00:29:40.800Z,11.48
2023-04-29T00:31:42.308Z,11.45
2023-04-29T00:33:44.098Z,11.44
2023-04-29T00:35:45.746Z,11.41
2023-04-29T00:37:47.607Z,11.27
2023-04-29T00:39:49.149Z,11.36
2023-04-29T00:41:50.686Z,11.35
2023-04-29T00:43:53.666Z,11.32
2023-04-29T00:45:55.221Z,11.40
2023-04-29T00:47:56.743Z,11.41
2023-04-29T00:49:58.781Z,11.44
2023-04-29T00:52:01.339Z,11.45
2023-04-29T00:54:03.075Z,11.44
2023-04-29T00:56:05.375Z,11.37
2023-04-29T00:58:07.010Z,11.29
2023-04-29T01:00:10.923Z,11.23
2023-04-29T01:02:14.162Z,11.20
2023-04-29T01:04:16.441Z,11.24
2023-04-29T01:06:27.220Z,11.18
2023-04-29T01:08:43.202Z,11.21
2023-04-29T01:10:47.312Z,11.18
2023-04-29T01:12:58.606Z,11.17
2023-04-29T01:15:04.769Z,11.17
2023-04-29T01:17:11.286Z,11.12
2023-04-29T01:19:21.992Z,11.16
2023-04-29T01:21:25.089Z,11.18
2023-04-29T01:23:28.735Z,11.09
2023-04-29T01:25:30.592Z,11.05
2023-04-29T01:27:37.356Z,11.11
2023-04-29T01:29:45.951Z,11.07
2023-04-29T01:31:56.232Z,11.03
2023-04-29T01:34:09.455Z,11.06
2023-04-29T01:36:19.535Z,10.98
2023-04-29T01:38:33.842Z,11.07
2023-04-29T01:40:42.944Z,11.08
2023-04-29T01:42:47.084Z,11.06
2023-04-29T01:44:51.138Z,10.95
2023-04-29T01:46:54.041Z,10.92
2023-04-29T01:48:55.705Z,10.80
2023-04-29T01:50:57.185Z,10.91
2023-04-29T01:52:59.204Z,10.87
2023-04-29T01:55:02.070Z,10.90
2023-04-29T01:57:03.649Z,10.89
2023-04-29T01:59:05.189Z,10.85
2023-04-29T02:01:06.813Z,10.75
2023-04-29T02:03:08.445Z,10.77
2023-04-29T02:05:10.207Z,10.82
2023-04-29T02:07:12.013Z,10.82
2023-04-29T02:09:13.497Z,10.83
2023-04-29T02:11:16.546Z,10.79
2023-04-29T02:13:18.361Z,10.66
2023-04-29T02:15:19.917Z,10.78
2023-04-29T02:17:21.416Z,10.76
2023-04-29T02:19:23.088Z,10.81
2023-04-29T02:21:24.754Z,10.73
2023-04-29T02:23:26.279Z,10.80
2023-04-29T02:25:27.960Z,10.84
2023-04-29T02:27:30.915Z,10.79
2023-04-29T02:29:32.659Z,10.77
2023-04-29T02:31:34.166Z,10.73
2023-04-29T02:33:35.681Z,10.76
2023-04-29T02:35:37.199Z,10.78
2023-04-29T02:37:38.751Z,10.70
2023-04-29T02:39:40.230Z,10.69
2023-04-29T02:41:41.685Z,10.59
2023-04-29T02:43:44.694Z,10.53
2023-04-29T02:45:46.250Z,10.55
2023-04-29T02:47:47.925Z,10.48
2023-04-29T02:49:49.739Z,10.59
2023-04-29T02:51:51.251Z,10.56
2023-04-29T02:53:52.832Z,10.55
2023-04-29T02:55:54.336Z,10.51
2023-04-29T02:57:55.851Z,10.44
2023-04-29T02:59:58.761Z,10.39
2023-04-29T03:02:00.422Z,10.37
2023-04-29T03:04:02.201Z,10.27
2023-04-29T03:06:04.006Z,10.31
2023-04-29T03:08:05.510Z,10.25
2023-04-29T03:10:08.222Z,10.26
2023-04-29T03:12:09.898Z,10.19
2023-04-29T03:14:11.445Z,10.17
2023-04-29T03:16:14.604Z,10.17
2023-04-29T03:18:16.087Z,10.20
2023-04-29T03:20:18.226Z,10.13
2023-04-29T03:22:20.281Z,10.11
2023-04-29T03:24:24.510Z,9.92
2023-04-29T03:26:26.179Z,9.85
2023-04-29T03:28:27.801Z,9.86
2023-04-29T03:30:29.274Z,9.70
2023-04-29T03:32:32.575Z,9.74
2023-04-29T03:34:34.088Z,9.80
2023-04-29T03:36:35.654Z,9.73
2023-04-29T03:38:37.165Z,9.83
2023-04-29T03:40:38.841Z,9.96
2023-04-29T03:42:40.644Z,9.96
2023-04-29T03:44:42.128Z,9.99
2023-04-29T03:46:43.706Z,9.94
2023-04-29T03:48:46.749Z,9.92
2023-04-29T03:50:48.258Z,9.98
2023-04-29T03:52:49.805Z,9.91
2023-04-29T03:54:51.301Z,9.79
2023-04-29T03:56:52.778Z,9.81
2023-04-29T03:58:54.329Z,9.73
2023-04-29T04:00:55.855Z,9.68
2023-04-29T04:02:57.721Z,9.68
2023-04-29T04:05:00.702Z,9.80
2023-04-29T04:07:02.240Z,9.80
2023-04-29T04:09:03.812Z,9.70
2023-04-29T04:11:05.351Z,9.70
2023-04-29T04:13:06.915Z,9.74
2023-04-29T04:15:09.371Z,9.71
2023-04-29T04:17:10.863Z,9.81
2023-04-29T04:19:12.336Z,9.69
2023-04-29T04:21:16.053Z,9.77
2023-04-29T04:23:17.613Z,9.74
2023-04-29T04:25:19.116Z,9.53
2023-04-29T04:27:20.863Z,9.49
2023-04-29T04:29:22.515Z,9.49
2023-04-29T04:31:24.139Z,9.46
2023-04-29T04:33:26.301Z,9.36
2023-04-29T04:35:27.988Z,9.27
2023-04-29T04:37:30.841Z,9.28
2023-04-29T04:39:32.726Z,9.31
2023-04-29T04:41:34.209Z,9.31
2023-04-29T04:43:35.747Z,9.32
2023-04-29T04:45:37.393Z,9.29
2023-04-29T04:47:40.364Z,9.28
2023-04-29T04:49:41.951Z,9.28
2023-04-29T04:51:44.162Z,9.27
2023-04-29T04:53:46.988Z,9.28
2023-04-29T04:55:48.461Z,9.30
2023-04-29T04:57:50.114Z,9.33
2023-04-29T04:59:52.022Z,9.35
2023-04-29T05:01:54.003Z,9.37
2023-04-29T05:03:55.716Z,9.41
2023-04-29T05:05:58.616Z,9.41
2023-04-29T05:08:00.237Z,9.49
2023-04-29T05:10:03.676Z,9.59
2023-04-29T05:12:05.491Z,9.63
2023-04-29T05:14:06.957Z,9.68
2023-04-29T05:16:08.497Z,9.70
2023-04-29T05:18:10.251Z,9.81
2023-04-29T05:20:12.582Z,9.87
2023-04-29T05:22:14.109Z,10.01
2023-04-29T05:24:15.881Z,10.02
2023-04-29T05:26:18.734Z,10.08
2023-04-29T05:28:20.368Z,10.13
2023-04-29T05:30:21.849Z,10.13
2023-04-29T05:32:23.558Z,10.21
2023-04-29T05:34:25.188Z,10.21
2023-04-29T05:36:27.404Z,10.32
2023-04-29T05:38:28.914Z,10.33
2023-04-29T05:40:30.464Z,10.37
2023-04-29T05:42:33.352Z,10.46
2023-04-29T05:44:34.861Z,10.62
2023-04-29T05:46:36.656Z,10.64
2023-04-29T05:48:38.320Z,10.85
2023-04-29T05:50:39.878Z,10.89
2023-04-29T05:52:41.467Z,10.98
2023-04-29T05:54:42.985Z,11.01
2023-04-29T05:56:44.541Z,11.19
2023-04-29T05:58:47.391Z,11.21
2023-04-29T06:00:48.844Z,11.35
2023-04-29T06:02:58.251Z,11.22
2023-04-29T06:05:00.993Z,11.32
2023-04-29T06:07:02.702Z,11.24
2023-04-29T06:09:08.542Z,11.29
2023-04-29T06:11:12.368Z,11.20
2023-04-29T06:13:13.834Z,11.13
2023-04-29T06:15:17.426Z,11.11
2023-04-29T06:17:18.891Z,11.09
2023-04-29T06:19:20.488Z,10.96
2023-04-29T06:21:22.296Z,10.99
2023-04-29T06:23:23.982Z,11.07
2023-04-29T06:25:25.682Z,11.02
2023-04-29T06:27:27.180Z,10.88
2023-04-29T06:29:28.643Z,10.97
2023-04-29T06:31:31.556Z,11.02
2023-04-29T06:33:33.135Z,11.05
2023-04-29T06:35:38.804Z,11.27
2023-04-29T06:37:40.445Z,11.25
2023-04-29T06:39:41.921Z,11.21
2023-04-29T06:41:43.472Z,11.29
2023-04-29T06:43:45.445Z,11.40
2023-04-29T06:45:48.291Z,11.60
2023-04-29T06:47:51.168Z,11.64
2023-04-29T06:49:52.759Z,11.77
2023-04-29T06:51:54.415Z,11.67
2023-04-29T06:53:56.101Z,11.63
2023-04-29T06:55:57.559Z,11.61
2023-04-29T06:57:59.020Z,11.57
2023-04-29T07:00:00.549Z,11.48
2023-04-29T07:02:02.037Z,11.46
2023-04-29T07:04:05.161Z,11.46
2023-04-29T07:06:06.729Z,11.39
2023-04-29T07:08:08.858Z,11.46
2023-04-29T07:10:10.736Z,11.63
2023-04-29T07:12:12.879Z,11.63
2023-04-29T07:14:14.346Z,11.69
2023-04-29T07:16:16.397Z,11.70
2023-04-29T07:18:18.490Z,11.65
2023-04-29T07:20:22.590Z,11.78
2023-04-29T07:22:24.204Z,11.84
2023-04-29T07:24:25.967Z,11.71
2023-04-29T07:26:27.570Z,11.84
2023-04-29T07:28:29.322Z,11.91
2023-04-29T07:30:30.865Z,11.80
2023-04-29T07:32:32.839Z,11.88
2023-04-29T07:34:34.998Z,11.75
2023-04-29T07:36:37.821Z,11.85
2023-04-29T07:38:39.262Z,11.98
2023-04-29T07:40:42.041Z,11.87
2023-04-29T07:42:43.823Z,11.73
2023-04-29T07:44:45.369Z,11.59
2023-04-29T07:46:46.927Z,11.55
2023-04-29T07:48:48.713Z,11.56
2023-04-29T07:50:50.373Z,11.62
2023-04-29T07:52:53.249Z,11.61
2023-04-29T07:54:54.755Z,11.60
2023-04-29T07:56:57.896Z,11.66
2023-04-29T07:59:00.073Z,11.66
2023-04-29T08:01:05.878Z,11.71
2023-04-29T08:03:08.428Z,11.75
2023-04-29T08:05:10.670Z,11.90
2023-04-29T08:07:12.674Z,11.81
2023-04-29T08:09:16.009Z,11.81
2023-04-29T08:11:18.341Z,11.81
2023-04-29T08:13:20.532Z,11.83
2023-04-29T08:15:22.737Z,11.83
2023-04-29T08:17:24.529Z,12.02
2023-04-29T08:19:26.053Z,12.01
2023-04-29T08:21:27.649Z,12.09
2023-04-29T08:23:29.405Z,12.33
2023-04-29T08:25:32.256Z,12.34
2023-04-29T08:27:34.254Z,12.48
2023-04-29T08:29:35.736Z,12.55
2023-04-29T08:31:37.350Z,12.19
2023-04-29T08:33:38.863Z,12.75
2023-04-29T08:35:40.841Z,12.87
2023-04-29T08:37:42.394Z,12.81
2023-04-29T08:39:43.835Z,12.64
2023-04-29T08:41:46.889Z,12.79
2023-04-29T08:43:48.441Z,13.15
2023-04-29T08:45:50.256Z,13.56
2023-04-29T08:47:53.223Z,13.59
2023-04-29T08:49:54.776Z,13.10
2023-04-29T08:51:56.607Z,13.29
2023-04-29T08:53:58.147Z,13.45
2023-04-29T08:56:04.235Z,13.59
2023-04-29T08:58:07.769Z,13.70
2023-04-29T09:00:11.485Z,13.80
2023-04-29T09:02:15.841Z,13.91
2023-04-29T09:04:31.176Z,13.72
2023-04-29T09:06:33.059Z,13.79
2023-04-29T09:08:35.379Z,13.75
2023-04-29T09:10:37.708Z,13.68
2023-04-29T09:12:39.215Z,13.42
2023-04-29T09:14:42.067Z,13.54
2023-04-29T09:16:46.381Z,13.48
2023-04-29T09:18:49.882Z,13.80
2023-04-29T09:20:51.394Z,13.86
2023-04-29T09:22:55.230Z,13.63
2023-04-29T09:25:11.988Z,13.52
2023-04-29T09:27:26.305Z,13.32
2023-04-29T09:29:27.843Z,13.58
2023-04-29T09:31:30.856Z,13.47
2023-04-29T09:33:32.512Z,13.50
2023-04-29T09:35:34.625Z,13.45
2023-04-29T09:37:36.098Z,13.70
2023-04-29T09:39:39.296Z,13.34
2023-04-29T09:41:43.203Z,13.28
2023-04-29T09:43:44.666Z,13.27
2023-04-29T09:45:47.669Z,13.32
2023-04-29T09:48:01.697Z,13.38
2023-04-29T09:50:11.932Z,13.62
2023-04-29T09:52:15.140Z,13.44
2023-04-29T09:54:20.923Z,13.72
2023-04-29T09:56:22.406Z,13.81
2023-04-29T09:58:30.301Z,13.91
2023-04-29T10:00:33.687Z,13.50
2023-04-29T10:02:35.595Z,13.52
2023-04-29T10:04:40.757Z,13.64
2023-04-29T10:06:44.043Z,13.78
2023-04-29T10:08:47.522Z,13.61
2023-04-29T10:10:49.030Z,13.90
2023-04-29T10:12:53.280Z,14.12
2023-04-29T10:15:02.669Z,14.05
2023-04-29T10:17:15.164Z,14.01
2023-04-29T10:19:24.822Z,13.88
2023-04-29T10:21:30.321Z,13.89
2023-04-29T10:23:33.128Z,14.26
2023-04-29T10:25:36.097Z,14.27
2023-04-29T10:27:37.825Z,13.96
2023-04-29T10:29:39.987Z,13.53
2023-04-29T10:31:43.097Z,13.27
2023-04-29T10:33:46.752Z,13.31
2023-04-29T10:35:48.999Z,13.43
2023-04-29T10:37:53.581Z,13.70
2023-04-29T10:40:03.531Z,13.90
2023-04-29T10:42:06.238Z,13.94
2023-04-29T10:44:07.912Z,14.06
2023-04-29T10:46:17.882Z,14.10
2023-04-29T10:48:20.453Z,13.88
2023-04-29T10:50:21.965Z,13.51
2023-04-29T10:52:23.416Z,13.24
2023-04-29T10:54:27.740Z,13.16
2023-04-29T10:56:37.097Z,13.37
2023-04-29T10:58:41.961Z,13.52
2023-04-29T11:00:43.462Z,13.71
2023-04-29T11:02:45.028Z,13.50
2023-04-29T11:05:07.848Z,13.84
2023-04-29T11:07:09.407Z,13.97
2023-04-29T11:09:13.272Z,13.86
2023-04-29T11:11:16.101Z,13.72
2023-04-29T11:13:24.585Z,13.86
2023-04-29T11:15:26.424Z,14.20
2023-04-29T11:17:35.384Z,13.59
2023-04-29T11:19:41.631Z,13.95
2023-04-29T11:21:45.004Z,13.96
2023-04-29T11:23:47.566Z,14.13
2023-04-29T11:25:49.485Z,14.19
2023-04-29T11:27:52.547Z,14.18
2023-04-29T11:29:55.622Z,13.61
2023-04-29T11:31:59.099Z,13.82
2023-04-29T11:34:00.820Z,14.10
2023-04-29T11:36:03.377Z,14.10
2023-04-29T11:38:05.089Z,14.07
2023-04-29T11:40:08.035Z,13.79
2023-04-29T11:42:09.710Z,14.09
2023-04-29T11:44:12.541Z,14.10
2023-04-29T11:46:15.065Z,14.33
2023-04-29T11:48:19.696Z,14.16
2023-04-29T11:50:21.228Z,14.26
2023-04-29T11:52:23.108Z,14.76
2023-04-29T11:54:26.546Z,14.70
2023-04-29T11:56:28.031Z,14.61
2023-04-29T11:58:29.835Z,15.04
2023-04-29T12:00:32.821Z,14.98
2023-04-29T12:02:35.338Z,14.71
2023-04-29T12:04:45.415Z,14.24
2023-04-29T12:06:51.166Z,14.58
2023-04-29T12:08:52.629Z,14.51
2023-04-29T12:10:56.661Z,14.47
2023-04-29T12:12:58.402Z,14.74
2023-04-29T12:15:00.075Z,14.79
2023-04-29T12:17:03.518Z,14.86
2023-04-29T12:19:05.164Z,14.98
2023-04-29T12:21:06.807Z,15.36
2023-04-29T12:23:12.578Z,14.98
2023-04-29T12:25:15.712Z,14.68
2023-04-29T12:27:17.255Z,14.85
2023-04-29T12:29:21.754Z,14.87
2023-04-29T12:31:23.484Z,14.80
2023-04-29T12:33:28.239Z,15.03
2023-04-29T12:35:30.030Z,15.37
2023-04-29T12:37:31.623Z,14.97
2023-04-29T12:39:33.375Z,14.94
2023-04-29T12:41:39.397Z,14.46
2023-04-29T12:43:41.820Z,14.97
2023-04-29T12:45:43.778Z,15.27
2023-04-29T12:47:45.252Z,15.33
2023-04-29T12:49:48.319Z,14.88
2023-04-29T12:51:49.917Z,15.14
2023-04-29T12:53:51.584Z,15.26
2023-04-29T12:55:53.493Z,15.30
2023-04-29T12:57:55.102Z,15.51
2023-04-29T12:59:56.609Z,15.59
2023-04-29T13:01:58.120Z,15.30
2023-04-29T13:03:59.892Z,15.49
2023-04-29T13:06:02.921Z,15.88
2023-04-29T13:08:04.725Z,16.01
2023-04-29T13:10:07.407Z,15.73
2023-04-29T13:12:09.877Z,15.59
2023-04-29T13:14:11.685Z,15.75
2023-04-29T13:16:13.232Z,15.48
2023-04-29T13:18:15.635Z,15.72
2023-04-29T13:20:17.736Z,15.89
2023-04-29T13:22:20.592Z,16.13
2023-04-29T13:24:22.144Z,16.01
2023-04-29T13:26:23.668Z,16.35
2023-04-29T13:28:25.669Z,16.25
2023-04-29T13:30:27.519Z,16.47
2023-04-29T13:32:41.968Z,16.12
2023-04-29T13:34:46.421Z,15.73
2023-04-29T13:36:47.914Z,16.28
2023-04-29T13:38:55.094Z,16.64
2023-04-29T13:40:57.749Z,16.92
2023-04-29T13:43:05.945Z,16.93
2023-04-29T13:45:10.940Z,17.21
2023-04-29T13:47:12.588Z,17.36
2023-04-29T13:49:28.864Z,16.81
2023-04-29T13:52:17.004Z,17.09
2023-04-29T13:54:48.157Z,17.20
2023-04-29T14:02:34.242Z,17.33
2023-04-29T14:04:35.984Z,16.96
2023-04-29T14:06:37.743Z,17.52
2023-04-29T14:08:39.203Z,17.99
2023-04-29T14:10:42.803Z,18.09
2023-04-29T14:12:44.099Z,18.46
2023-04-29T14:14:45.742Z,18.59
2023-04-29T14:16:47.343Z,18.02
2023-04-29T14:18:48.818Z,18.35
2023-04-29T14:20:50.316Z,18.52
2023-04-29T14:22:51.861Z,18.76
2023-04-29T14:24:53.568Z,18.98
2023-04-29T14:26:56.706Z,18.16
2023-04-29T14:29:00.339Z,17.31
2023-04-29T14:31:02.301Z,17.61
2023-04-29T14:33:04.131Z,17.72
2023-04-29T14:35:06.686Z,17.49
2023-04-29T14:37:08.153Z,17.39
2023-04-29T14:39:10.212Z,17.16
2023-04-29T14:41:11.815Z,17.04
2023-04-29T14:43:15.044Z,17.25
2023-04-29T14:45:16.597Z,16.86
2023-04-29T14:47:18.071Z,16.71
2023-04-29T14:49:20.011Z,16.50
2023-04-29T14:51:22.187Z,16.59
2023-04-29T14:53:23.712Z,15.84
2023-04-29T14:55:25.212Z,16.34
2023-04-29T14:57:27.423Z,16.79
2023-04-29T14:59:31.065Z,16.42
2023-04-29T15:01:32.605Z,16.17
2023-04-29T15:03:43.154Z,15.50
2023-04-29T15:05:45.888Z,14.98
2023-04-29T15:07:47.433Z,14.89
2023-04-29T15:09:49.027Z,14.39
2023-04-29T15:11:50.495Z,14.07
2023-04-29T15:13:52.011Z,14.16
2023-04-29T15:15:55.033Z,14.37
2023-04-29T15:17:56.618Z,14.48
2023-04-29T15:19:58.132Z,14.78
2023-04-29T15:21:59.716Z,14.47
2023-04-29T15:24:01.223Z,14.72
2023-04-29T15:26:02.921Z,14.72
2023-04-29T15:28:04.464Z,14.64
2023-04-29T15:30:06.976Z,13.96
2023-04-29T15:32:09.883Z,13.98
2023-04-29T15:34:11.947Z,14.07
2023-04-29T15:36:13.879Z,14.07
2023-04-29T15:38:15.332Z,13.79
2023-04-29T15:40:16.942Z,14.08
2023-04-29T15:42:18.473Z,13.90
2023-04-29T15:44:20.139Z,14.22
2023-04-29T15:46:21.713Z,14.46
2023-04-29T15:48:24.594Z,14.55
2023-04-29T15:50:26.081Z,14.67
2023-04-29T15:52:27.639Z,14.42
2023-04-29T15:54:29.277Z,14.22
2023-04-29T15:56:30.821Z,14.32
2023-04-29T15:58:32.303Z,13.92
2023-04-29T16:00:34.128Z,13.89
2023-04-29T16:02:35.801Z,14.21
2023-04-29T16:04:38.864Z,13.83
2023-04-29T16:06:40.486Z,13.69
2023-04-29T16:08:42.168Z,13.60
2023-04-29T16:10:44.067Z,13.26
2023-04-29T16:12:45.854Z,13.51
2023-04-29T16:14:47.321Z,13.19
2023-04-29T16:16:48.853Z,13.07
2023-04-29T16:18:50.579Z,13.23
2023-04-29T16:20:53.490Z,12.95
2023-04-29T16:22:54.962Z,12.89
2023-04-29T16:24:56.722Z,13.09
2023-04-29T16:26:58.517Z,12.90
2023-04-29T16:29:00.029Z,13.10
2023-04-29T16:31:01.665Z,13.17
2023-04-29T16:33:03.463Z,13.17
2023-04-29T16:35:05.809Z,13.00
2023-04-29T16:37:08.731Z,12.78
2023-04-29T16:39:10.247Z,12.72
2023-04-29T16:41:11.719Z,12.70
2023-04-29T16:43:14.063Z,12.31
2023-04-29T16:45:15.725Z,12.51
2023-04-29T16:47:17.289Z,12.54
2023-04-29T16:49:25.552Z,12.06
2023-04-29T16:51:27.511Z,12.28
2023-04-29T16:53:30.347Z,12.61
2023-04-29T16:55:32.407Z,12.84
2023-04-29T16:57:33.959Z,13.02
2023-04-29T16:59:35.442Z,13.00
2023-04-29T17:01:37.490Z,13.00
2023-04-29T17:03:39.192Z,12.97
2023-04-29T17:05:40.836Z,12.77
2023-04-29T17:07:42.830Z,12.46
2023-04-29T17:09:46.005Z,12.57
2023-04-29T17:11:47.486Z,12.59
2023-04-29T17:13:49.387Z,12.34
2023-04-29T17:15:50.914Z,12.49
2023-04-29T17:17:53.350Z,12.43
2023-04-29T17:19:55.132Z,12.63
2023-04-29T17:21:57.975Z,12.43
2023-04-29T17:23:59.447Z,12.43
2023-04-29T17:26:03.779Z,12.47
2023-04-29T17:28:05.947Z,12.48
2023-04-29T17:30:09.077Z,12.35
2023-04-29T17:32:10.668Z,12.24
2023-04-29T17:34:12.791Z,12.22
2023-04-29T17:36:15.050Z,12.50
2023-04-29T17:38:16.519Z,12.44
2023-04-29T17:40:18.903Z,12.47
2023-04-29T17:42:21.861Z,12.47
2023-04-29T17:44:23.745Z,12.46
2023-04-29T17:46:25.443Z,12.29
2023-04-29T17:48:27.501Z,12.25
2023-04-29T17:50:29.068Z,12.34
2023-04-29T17:52:31.518Z,12.21
2023-04-29T17:54:33.232Z,12.08
2023-04-29T17:56:35.115Z,12.20
2023-04-29T17:58:39.019Z,12.16
2023-04-29T18:00:41.349Z,12.21
2023-04-29T18:02:42.934Z,12.01
2023-04-29T18:04:44.474Z,12.11
2023-04-29T18:06:46.916Z,12.20
2023-04-29T18:08:48.425Z,12.24
2023-04-29T18:10:49.939Z,12.25
2023-04-29T18:12:51.415Z,12.23
2023-04-29T18:14:54.304Z,12.26
2023-04-29T18:16:56.820Z,12.21
2023-04-29T18:18:58.684Z,12.24
2023-04-29T18:21:00.208Z,12.08
2023-04-29T18:23:01.702Z,12.13
2023-04-29T18:25:06.632Z,12.16
2023-04-29T18:27:08.138Z,12.11
2023-04-29T18:29:09.621Z,12.16
2023-04-29T18:31:12.971Z,12.19
2023-04-29T18:33:14.861Z,12.17
2023-04-29T18:35:16.634Z,12.08
2023-04-29T18:37:18.173Z,12.01
2023-04-29T18:39:20.577Z,11.92
2023-04-29T18:41:22.035Z,11.87
2023-04-29T18:43:24.485Z,11.79
2023-04-29T18:45:26.340Z,11.88
2023-04-29T18:47:29.241Z,11.56
2023-04-29T18:49:31.466Z,11.64
2023-04-29T18:51:32.937Z,11.69
2023-04-29T18:53:34.459Z,11.82
2023-04-29T18:55:36.093Z,11.85
2023-04-29T18:57:37.580Z,11.54
2023-04-29T18:59:39.088Z,11.77
2023-04-29T19:01:40.777Z,11.59
2023-04-29T19:03:43.660Z,11.60
2023-04-29T19:05:45.554Z,11.66
2023-04-29T19:07:47.259Z,11.73
2023-04-29T19:09:48.787Z,11.73
2023-04-29T19:12:31.935Z,11.73
2023-04-29T19:20:42.338Z,11.69
2023-04-29T19:22:43.916Z,11.64
2023-04-29T19:24:45.554Z,11.56
2023-04-29T19:26:47.834Z,11.61
2023-04-29T19:28:49.431Z,11.63
2023-04-29T19:30:51.560Z,11.72
2023-04-29T19:32:53.370Z,11.59
2023-04-29T19:34:55.432Z,11.50
2023-04-29T19:36:58.261Z,11.38
2023-04-29T19:38:59.811Z,11.38
2023-04-29T19:41:05.122Z,11.46
2023-04-29T19:43:06.822Z,11.43
2023-04-29T19:45:09.159Z,11.38
2023-04-29T19:47:10.617Z,11.39
2023-04-29T19:49:12.902Z,11.45
2023-04-29T19:51:14.384Z,11.35
2023-04-29T19:53:18.138Z,11.22
2023-04-29T19:55:19.726Z,11.15
2023-04-29T19:57:21.208Z,11.20
2023-04-29T19:59:23.498Z,11.06
2023-04-29T20:01:25.356Z,11.12
2023-04-29T20:03:27.080Z,11.12
2023-04-29T20:05:29.365Z,11.18
2023-04-29T20:07:30.867Z,11.25
2023-04-29T20:09:34.249Z,11.27
2023-04-29T20:11:35.738Z,11.14
2023-04-29T20:13:37.235Z,11.17
2023-04-29T20:15:38.743Z,11.18
2023-04-29T20:17:40.496Z,11.13
2023-04-29T20:19:42.036Z,11.17
2023-04-29T20:21:43.516Z,11.11
2023-04-29T20:23:48.170Z,11.12
2023-04-29T20:25:51.033Z,11.17
2023-04-29T20:27:53.057Z,11.25
2023-04-29T20:29:54.761Z,11.21
2023-04-29T20:31:56.535Z,11.25
2023-04-29T20:33:58.521Z,11.23
2023-04-29T20:36:00.023Z,11.27
2023-04-29T20:38:06.241Z,11.25
2023-04-29T20:40:10.042Z,11.20
2023-04-29T20:42:12.712Z,11.16
2023-04-29T20:44:14.158Z,11.14
2023-04-29T20:46:15.732Z,11.14
2023-04-29T20:48:17.190Z,11.13
2023-04-29T20:50:19.136Z,11.13
2023-04-29T20:52:20.676Z,11.08
2023-04-29T20:54:22.863Z,11.14
2023-04-29T20:56:24.398Z,11.19
2023-04-29T20:58:27.232Z,11.23
2023-04-29T21:00:29.776Z,11.16
2023-04-29T21:02:32.312Z,11.08
2023-04-29T21:04:34.896Z,11.18
2023-04-29T21:06:36.498Z,11.26
2023-04-29T21:08:38.042Z,11.32
2023-04-29T21:10:42.259Z,11.17
2023-04-29T21:12:43.895Z,10.87
2023-04-29T21:14:47.606Z,10.94
2023-04-29T21:16:49.120Z,10.83
2023-04-29T21:18:50.695Z,10.92
2023-04-29T21:20:52.811Z,10.97
2023-04-29T21:22:55.636Z,11.01
2023-04-29T21:24:57.120Z,10.93
2023-04-29T21:26:59.333Z,10.90
2023-04-29T21:29:00.848Z,11.02
2023-04-29T21:31:06.204Z,11.13
2023-04-29T21:33:07.778Z,10.99
2023-04-29T21:35:09.759Z,11.02
2023-04-29T21:37:12.569Z,10.97
2023-04-29T21:39:14.056Z,11.04
2023-04-29T21:41:19.606Z,10.97
2023-04-29T21:43:21.946Z,10.98
2023-04-29T21:45:23.571Z,10.98
2023-04-29T21:47:27.245Z,10.99
2023-04-29T21:49:29.358Z,10.82
2023-04-29T21:51:30.906Z,11.07
2023-04-29T21:53:32.404Z,10.97
2023-04-29T21:55:34.177Z,11.06
2023-04-29T21:57:43.709Z,10.79
2023-04-29T21:59:46.604Z,11.13
2023-04-29T22:01:49.034Z,11.11
2023-04-29T22:03:52.183Z,11.23
2023-04-29T22:05:53.708Z,11.44
2023-04-29T22:07:57.730Z,11.34
2023-04-29T22:09:59.289Z,11.16
2023-04-29T22:12:00.789Z,11.16
2023-04-29T22:14:02.276Z,11.23
2023-04-29T22:16:04.111Z,11.23
2023-04-29T22:18:05.779Z,11.24
2023-04-29T22:20:11.945Z,11.09
2023-04-29T22:22:13.451Z,10.86
2023-04-29T22:24:14.984Z,11.21
2023-04-29T22:26:16.444Z,11.13
2023-04-29T22:28:17.905Z,10.97
2023-04-29T22:30:19.505Z,11.14
2023-04-29T22:32:21.010Z,11.07
2023-04-29T22:34:22.618Z,11.10
2023-04-29T22:36:25.514Z,11.05
2023-04-29T22:38:27.073Z,11.08
2023-04-29T22:40:28.560Z,11.12
2023-04-29T22:42:30.026Z,10.99
2023-04-29T22:44:31.489Z,10.94
2023-04-29T22:46:33.066Z,11.02
2023-04-29T22:48:34.603Z,11.05
2023-04-29T22:50:36.097Z,10.95
2023-04-29T22:52:39.000Z,11.00
2023-04-29T22:54:40.499Z,10.88
2023-04-29T22:56:42.071Z,10.86
2023-04-29T22:58:43.523Z,10.82
2023-04-29T23:00:45.456Z,10.83
2023-04-29T23:02:47.032Z,11.01
2023-04-29T23:04:48.598Z,11.12
2023-04-29T23:06:50.147Z,11.07
2023-04-29T23:08:53.246Z,10.95
2023-04-29T23:10:54.761Z,10.95
2023-04-29T23:12:56.246Z,10.81
2023-04-29T23:14:57.738Z,10.85
2023-04-29T23:16:59.260Z,10.76
2023-04-29T23:19:00.794Z,10.74
2023-04-29T23:21:02.308Z,10.88
2023-04-29T23:23:03.796Z,10.98
2023-04-29T23:25:07.569Z,10.93
2023-04-29T23:27:08.961Z,10.94
2023-04-29T23:29:10.423Z,10.85
2023-04-29T23:31:11.907Z,10.88
2023-04-29T23:33:13.542Z,10.85
2023-04-29T23:35:15.104Z,10.77
2023-04-29T23:37:16.572Z,10.91
2023-04-29T23:39:18.070Z,10.97
2023-04-29T23:41:20.881Z,10.88
2023-04-29T23:43:22.408Z,10.92
2023-04-29T23:45:24.008Z,10.85
2023-04-29T23:47:25.578Z,10.74
2023-04-29T23:49:27.060Z,10.83
2023-04-29T23:51:28.614Z,10.87
2023-04-29T23:53:30.088Z,10.90
2023-04-29T23:55:32.487Z,10.96
2023-04-29T23:57:35.378Z,10.90
2023-04-29T23:59:36.832Z,10.86
